Time;durP1;ratioP1;P1;durP2;ratioP2;P2;SDS_P1;SDS_P2;PMS_P1;PMS_P2;Temp;Humidity;BMP_temperature;BMP_pressure;BME280_temperature;BME280_humidity;BME280_pressure;Samples;Min_cycle;Max_cycle;Signal;HPM_P1;HPM_P2
2023/09/03 00:00:38;;;;;;;3.97;2.40;;;20.50;49.30;;;;;;5135119;27;20558;-50
2023/09/03 00:03:04;;;;;;;2.10;1.40;;;20.50;49.40;;;;;;5135029;27;20723;-52
2023/09/03 00:05:30;;;;;;;2.33;1.70;;;20.40;49.20;;;;;;5134826;27;20423;-50
2023/09/03 00:07:56;;;;;;;5.93;2.30;;;20.40;49.20;;;;;;5134757;27;20918;-52
2023/09/03 00:10:22;;;;;;;2.07;1.77;;;20.40;49.30;;;;;;5134942;27;20162;-53
2023/09/03 00:12:47;;;;;;;1.77;1.53;;;20.40;49.20;;;;;;5134961;27;20219;-52
2023/09/03 00:15:13;;;;;;;2.20;1.60;;;20.40;49.00;;;;;;5134911;27;20182;-52
2023/09/03 00:17:39;;;;;;;2.10;1.50;;;20.40;49.00;;;;;;5134634;27;20201;-49
2023/09/03 00:20:05;;;;;;;1.90;1.70;;;20.30;49.10;;;;;;5134720;27;20666;-48
2023/09/03 00:22:31;;;;;;;4.13;3.07;;;20.30;49.20;;;;;;5134565;27;20485;-52
2023/09/03 00:24:57;;;;;;;4.53;1.60;;;20.30;49.30;;;;;;5134268;27;20504;-51
2023/09/03 00:27:23;;;;;;;2.03;1.40;;;20.20;49.40;;;;;;5134786;27;20630;-52
2023/09/03 00:29:48;;;;;;;3.17;1.50;;;20.20;49.50;;;;;;5134497;27;20171;-51
2023/09/03 00:32:14;;;;;;;3.03;2.37;;;20.20;49.80;;;;;;5134603;27;20457;-50
2023/09/03 00:34:40;;;;;;;1.83;1.40;;;20.20;49.80;;;;;;5134089;27;20262;-54
2023/09/03 00:37:05;;;;;;;2.33;1.67;;;20.20;50.00;;;;;;5133034;27;20277;-49
2023/09/03 00:39:32;;;;;;;2.30;1.60;;;20.20;50.00;;;;;;5134312;27;20584;-51
2023/09/03 00:41:58;;;;;;;2.37;1.33;;;20.30;50.10;;;;;;5134509;27;20177;-52
2023/09/03 00:44:24;;;;;;;2.10;1.37;;;20.30;50.20;;;;;;5133839;27;20535;-49
2023/09/03 00:46:50;;;;;;;1.70;1.13;;;20.30;50.20;;;;;;5133900;27;20581;-50
2023/09/03 00:49:21;;;;;;;2.33;1.77;;;20.30;50.20;;;;;;5134238;27;20167;-55
2023/09/03 00:51:48;;;;;;;2.23;1.10;;;20.30;50.20;;;;;;5134013;27;20412;-52
2023/09/03 00:54:14;;;;;;;2.23;1.30;;;20.30;50.30;;;;;;5134024;27;20404;-48
2023/09/03 00:56:41;;;;;;;2.80;1.70;;;20.40;50.30;;;;;;5133939;27;20447;-50
2023/09/03 00:59:08;;;;;;;1.30;0.80;;;20.40;50.40;;;;;;5134119;27;20400;-52
2023/09/03 01:01:36;;;;;;;2.27;2.07;;;20.40;50.40;;;;;;5133858;27;20483;-50
2023/09/03 01:04:01;;;;;;;1.50;1.23;;;20.40;50.40;;;;;;5133678;27;20452;-50
2023/09/03 01:06:27;;;;;;;2.23;1.60;;;20.50;50.50;;;;;;5133479;27;20407;-53
2023/09/03 01:08:53;;;;;;;1.97;1.40;;;20.50;50.50;;;;;;5133929;27;20408;-51
2023/09/03 01:11:59;;;;;;;1.87;1.43;;;20.60;50.60;;;;;;5134022;27;20396;-51
2023/09/03 01:14:43;;;;;;;2.67;1.00;;;20.60;50.40;;;;;;5133430;27;20784;-51
2023/09/03 01:17:22;;;;;;;1.40;0.97;;;20.60;50.60;;;;;;5133513;27;20928;-49
2023/09/03 01:20:15;;;;;;;1.73;1.27;;;20.60;50.60;;;;;;5133587;27;20428;-52
2023/09/03 01:23:00;;;;;;;1.53;0.80;;;20.60;50.60;;;;;;5133159;27;20421;-53
2023/09/03 01:25:44;;;;;;;2.03;0.90;;;20.70;50.60;;;;;;5133642;27;20408;-50
2023/09/03 01:28:22;;;;;;;1.80;1.13;;;20.70;50.50;;;;;;5133774;27;20428;-51
2023/09/03 01:30:49;;;;;;;2.50;1.27;;;20.70;50.60;;;;;;5133369;27;20758;-53
2023/09/03 01:33:16;;;;;;;1.47;0.80;;;20.60;50.50;;;;;;5133345;27;20762;-50
2023/09/03 01:35:43;;;;;;;1.30;0.73;;;20.70;50.60;;;;;;5132963;27;20423;-50
2023/09/03 01:38:09;;;;;;;1.83;1.40;;;20.70;50.60;;;;;;5133163;27;20790;-51
2023/09/03 01:40:37;;;;;;;1.73;1.13;;;20.60;50.50;;;;;;5133293;27;20428;-51
2023/09/03 01:43:03;;;;;;;3.73;2.00;;;20.70;50.70;;;;;;5133092;27;20953;-53
2023/09/03 01:45:59;;;;;;;1.67;0.87;;;20.70;50.70;;;;;;5132945;27;20424;-51
2023/09/03 01:48:54;;;;;;;1.50;0.90;;;20.70;50.60;;;;;;5122347;27;20424;-50
2023/09/03 01:51:36;;;;;;;1.97;1.23;;;20.70;50.90;;;;;;5123380;27;20415;-52
2023/09/03 01:54:02;;;;;;;1.90;1.20;;;20.70;50.70;;;;;;5133036;27;20400;-51
2023/09/03 01:56:31;;;;;;;1.70;1.10;;;20.70;50.70;;;;;;5130710;27;20739;-51
2023/09/03 01:59:03;;;;;;;2.37;1.83;;;20.70;50.70;;;;;;5133083;27;20186;-49
2023/09/03 02:01:30;;;;;;;1.47;1.23;;;20.70;50.60;;;;;;5133049;27;20424;-53
2023/09/03 02:03:56;;;;;;;1.77;1.30;;;20.70;50.60;;;;;;5132949;27;20791;-49
2023/09/03 02:06:22;;;;;;;2.10;1.00;;;20.70;50.60;;;;;;5132668;27;20403;-52
2023/09/03 02:08:48;;;;;;;1.50;0.80;;;20.70;50.70;;;;;;5132832;27;20400;-50
2023/09/03 02:11:13;;;;;;;2.17;1.23;;;20.70;50.70;;;;;;5132937;27;20216;-50
2023/09/03 02:13:40;;;;;;;1.63;1.53;;;20.70;50.70;;;;;;5132981;27;20175;-53
2023/09/03 02:16:06;;;;;;;1.20;0.90;;;20.70;50.90;;;;;;5132769;28;20170;-50
2023/09/03 02:18:31;;;;;;;1.73;0.97;;;20.70;50.80;;;;;;5132635;28;20438;-52
2023/09/03 02:20:57;;;;;;;1.80;1.27;;;20.70;50.80;;;;;;5132889;27;20174;-52
2023/09/03 02:23:23;;;;;;;1.97;1.73;;;20.70;50.80;;;;;;5132520;27;20201;-49
2023/09/03 02:26:00;;;;;;;1.87;1.40;;;20.60;50.70;;;;;;5132559;28;20237;-53
2023/09/03 02:28:25;;;;;;;1.93;0.70;;;20.70;50.70;;;;;;5132766;27;20420;-55
2023/09/03 02:30:51;;;;;;;2.00;0.83;;;20.60;50.70;;;;;;5132710;27;20396;-50
2023/09/03 02:33:17;;;;;;;2.23;1.17;;;20.60;50.70;;;;;;5132876;27;20307;-50
2023/09/03 02:35:42;;;;;;;3.10;1.10;;;20.60;50.70;;;;;;5132357;27;20652;-51
2023/09/03 02:38:08;;;;;;;2.23;1.00;;;20.60;50.60;;;;;;5132464;28;20190;-53
2023/09/03 02:40:34;;;;;;;2.37;0.83;;;20.70;50.70;;;;;;5132799;28;20173;-49
2023/09/03 02:43:00;;;;;;;1.63;0.90;;;20.60;50.70;;;;;;5132782;28;20208;-52
2023/09/03 02:45:25;;;;;;;1.20;0.80;;;20.70;50.70;;;;;;5132401;28;20167;-52
2023/09/03 02:47:51;;;;;;;1.93;1.30;;;20.60;50.60;;;;;;5132466;28;20705;-50
2023/09/03 02:50:17;;;;;;;2.30;1.73;;;20.60;50.60;;;;;;5132499;28;20170;-49
2023/09/03 02:52:43;;;;;;;2.70;0.83;;;20.60;50.60;;;;;;5132461;27;20399;-51
2023/09/03 02:55:10;;;;;;;1.57;0.80;;;20.60;50.70;;;;;;5132556;28;20193;-53
2023/09/03 02:57:36;;;;;;;1.40;0.77;;;20.60;50.80;;;;;;5132450;27;20267;-50
2023/09/03 03:00:02;;;;;;;4.10;1.03;;;20.60;50.90;;;;;;5132548;27;20408;-48
2023/09/03 03:02:29;;;;;;;2.20;0.97;;;20.60;50.90;;;;;;5132491;27;20201;-50
2023/09/03 03:04:55;;;;;;;2.17;1.30;;;20.60;50.90;;;;;;5132059;28;20452;-53
2023/09/03 03:07:20;;;;;;;1.33;0.67;;;20.60;51.00;;;;;;5132272;27;20420;-49
2023/09/03 03:09:50;;;;;;;2.33;1.67;;;20.60;51.00;;;;;;5135728;27;20676;-50
2023/09/03 03:12:15;;;;;;;1.17;1.00;;;20.60;51.00;;;;;;5136068;27;20628;-51
2023/09/03 03:14:41;;;;;;;1.37;0.70;;;20.50;51.10;;;;;;5135736;27;20414;-55
2023/09/03 03:17:07;;;;;;;1.77;1.23;;;20.60;51.10;;;;;;5136031;27;20201;-51
2023/09/03 03:19:33;;;;;;;2.70;2.40;;;20.60;51.20;;;;;;5135902;27;20174;-53
2023/09/03 03:21:58;;;;;;;2.43;0.93;;;20.60;51.10;;;;;;5136157;27;20227;-55
2023/09/03 03:24:24;;;;;;;2.03;0.90;;;20.70;51.10;;;;;;5135472;27;20570;-53
2023/09/03 03:26:50;;;;;;;1.20;0.60;;;20.70;51.20;;;;;;5135975;27;20287;-55
2023/09/03 03:29:15;;;;;;;2.90;2.60;;;20.70;51.10;;;;;;5135738;27;20159;-51
2023/09/03 03:31:42;;;;;;;1.63;1.33;;;20.70;51.20;;;;;;5135839;27;20162;-50
2023/09/03 03:34:08;;;;;;;2.70;1.10;;;20.70;51.20;;;;;;5135285;27;20681;-52
2023/09/03 03:36:34;;;;;;;2.00;1.27;;;20.70;51.30;;;;;;5135405;27;20424;-53
2023/09/03 03:39:00;;;;;;;1.73;0.83;;;20.70;51.30;;;;;;5135569;27;20174;-51
2023/09/03 03:41:25;;;;;;;3.87;0.90;;;20.70;51.30;;;;;;5135464;27;20191;-53
2023/09/03 03:43:51;;;;;;;1.27;0.80;;;20.70;51.30;;;;;;5135324;27;20439;-52
2023/09/03 03:46:19;;;;;;;1.60;1.10;;;20.70;51.30;;;;;;5135168;27;20166;-53
2023/09/03 03:48:46;;;;;;;1.10;0.63;;;20.70;51.30;;;;;;5135319;27;20396;-55
2023/09/03 03:51:12;;;;;;;1.10;0.70;;;20.70;51.30;;;;;;5135337;27;20393;-50
2023/09/03 03:53:39;;;;;;;1.30;0.70;;;20.70;51.20;;;;;;5135175;27;20411;-55
2023/09/03 03:56:10;;;;;;;2.23;1.53;;;20.70;51.10;;;;;;5135245;27;20443;-54
2023/09/03 03:58:39;;;;;;;1.60;0.90;;;20.70;51.20;;;;;;5135073;27;20423;-51
2023/09/03 04:01:18;;;;;;;1.57;0.90;;;20.70;51.30;;;;;;5135386;27;20491;-53
2023/09/03 04:03:46;;;;;;;1.53;0.70;;;20.60;51.10;;;;;;5135290;27;20443;-52
2023/09/03 04:06:12;;;;;;;1.70;1.00;;;20.60;51.30;;;;;;5134834;27;20749;-51
2023/09/03 04:08:39;;;;;;;1.40;1.13;;;20.50;51.30;;;;;;5134965;27;20416;-57
2023/09/03 04:11:07;;;;;;;2.63;1.03;;;20.50;51.20;;;;;;5135206;27;20447;-54
2023/09/03 04:13:33;;;;;;;1.90;1.00;;;20.60;51.10;;;;;;5135081;27;20404;-51
2023/09/03 04:15:59;;;;;;;1.70;1.17;;;20.60;51.20;;;;;;5134810;27;20438;-51
2023/09/03 04:18:26;;;;;;;1.30;1.03;;;20.60;51.20;;;;;;5134735;27;20423;-57
2023/09/03 04:20:57;;;;;;;1.20;0.82;;;20.60;51.30;;;;;;5133893;27;20404;-53
2023/09/03 04:23:23;;;;;;;1.50;1.00;;;20.60;51.30;;;;;;5134732;27;20178;-50
2023/09/03 04:25:51;;;;;;;1.60;1.23;;;20.60;51.40;;;;;;5134367;27;20395;-51
2023/09/03 04:28:20;;;;;;;1.60;1.00;;;20.60;51.50;;;;;;5134419;27;20424;-52
2023/09/03 04:30:46;;;;;;;2.53;1.10;;;20.60;51.50;;;;;;5134501;27;20404;-56
2023/09/03 04:33:13;;;;;;;1.00;0.50;;;20.70;51.60;;;;;;5134806;27;20415;-51
2023/09/03 04:35:39;;;;;;;2.10;1.33;;;20.70;51.50;;;;;;5134271;27;20431;-56
2023/09/03 04:38:05;;;;;;;1.50;1.10;;;20.70;51.50;;;;;;5134372;27;20433;-52
2023/09/03 04:40:37;;;;;;;1.50;0.90;;;20.70;51.60;;;;;;5134593;27;20965;-55
2023/09/03 04:43:04;;;;;;;1.33;0.60;;;20.70;51.50;;;;;;5134205;27;20401;-51
2023/09/03 04:45:31;;;;;;;1.20;0.70;;;20.70;51.60;;;;;;5134163;27;20412;-54
2023/09/03 04:47:58;;;;;;;1.88;0.90;;;20.70;51.60;;;;;;5134403;27;20511;-56
2023/09/03 04:50:25;;;;;;;2.17;1.10;;;20.70;51.60;;;;;;5134270;27;20186;-52
2023/09/03 04:52:54;;;;;;;1.60;1.07;;;20.70;51.50;;;;;;5134194;27;20403;-54
2023/09/03 04:55:19;;;;;;;1.40;0.93;;;20.80;51.50;;;;;;5133696;27;20446;-52
2023/09/03 04:57:45;;;;;;;1.97;0.93;;;20.70;51.50;;;;;;5133912;27;20458;-53
2023/09/03 05:00:11;;;;;;;1.43;0.70;;;20.70;51.50;;;;;;5134000;27;20205;-52
2023/09/03 05:02:37;;;;;;;1.80;0.80;;;20.70;51.50;;;;;;5133854;27;20648;-51
2023/09/03 05:05:03;;;;;;;1.97;1.00;;;20.70;51.50;;;;;;5133874;27;20535;-56
2023/09/03 05:07:30;;;;;;;1.17;0.77;;;20.70;51.50;;;;;;5134011;27;20246;-52
2023/09/03 05:09:56;;;;;;;1.67;1.20;;;20.70;51.70;;;;;;5133726;27;20465;-52
2023/09/03 05:12:22;;;;;;;1.30;0.90;;;20.70;51.70;;;;;;5133657;27;20404;-55
2023/09/03 05:14:48;;;;;;;1.33;0.83;;;20.70;51.90;;;;;;5133737;27;20412;-50
2023/09/03 05:17:14;;;;;;;1.90;1.50;;;20.70;51.90;;;;;;5133609;27;20503;-52
2023/09/03 05:19:40;;;;;;;1.33;0.73;;;20.70;52.00;;;;;;5133599;27;20454;-55
2023/09/03 05:22:07;;;;;;;1.10;0.47;;;20.70;52.10;;;;;;5133555;27;20930;-50
2023/09/03 05:24:33;;;;;;;4.03;0.93;;;20.70;52.10;;;;;;5133022;27;20855;-55
2023/09/03 05:26:59;;;;;;;1.57;1.03;;;20.70;52.20;;;;;;5133343;27;20416;-51
2023/09/03 05:29:25;;;;;;;1.70;1.27;;;20.70;52.30;;;;;;5133493;27;20449;-57
2023/09/03 05:31:52;;;;;;;1.27;0.83;;;20.80;52.40;;;;;;5133482;27;20404;-50
2023/09/03 05:34:18;;;;;;;1.20;0.60;;;20.80;52.30;;;;;;5133327;27;20444;-57
2023/09/03 05:36:44;;;;;;;1.70;1.30;;;20.80;52.30;;;;;;5133265;27;20469;-57
2023/09/03 05:39:09;;;;;;;2.70;1.50;;;20.80;52.30;;;;;;5133139;27;20408;-51
2023/09/03 05:41:35;;;;;;;1.37;0.83;;;20.90;52.30;;;;;;5133250;27;20487;-56
2023/09/03 05:44:09;;;;;;;1.43;0.70;;;20.90;52.30;;;;;;5133022;27;20281;-50
2023/09/03 05:46:38;;;;;;;5.00;1.53;;;20.90;52.20;;;;;;5133269;27;20181;-56
2023/09/03 05:49:04;;;;;;;1.30;0.60;;;20.90;52.30;;;;;;5133096;27;20400;-53
2023/09/03 05:51:30;;;;;;;1.63;0.90;;;21.00;52.30;;;;;;5133172;27;20396;-52
2023/09/03 05:53:55;;;;;;;1.83;0.93;;;21.00;52.40;;;;;;5132953;27;20755;-54
2023/09/03 05:56:21;;;;;;;1.70;1.07;;;21.00;52.50;;;;;;5133022;27;20216;-55
2023/09/03 05:58:47;;;;;;;2.67;1.33;;;21.00;52.40;;;;;;5133223;27;20243;-52
2023/09/03 06:01:13;;;;;;;1.30;0.77;;;21.00;52.30;;;;;;5133325;27;20223;-57
2023/09/03 06:03:40;;;;;;;1.10;0.70;;;21.10;52.20;;;;;;5132857;27;20190;-52
2023/09/03 06:06:08;;;;;;;1.80;1.43;;;21.20;52.20;;;;;;5132702;27;20397;-57
2023/09/03 06:08:38;;;;;;;2.20;1.70;;;21.20;52.00;;;;;;5132614;27;20968;-50
2023/09/03 06:11:05;;;;;;;3.43;1.10;;;21.30;52.10;;;;;;5133164;27;20404;-54
2023/09/03 06:13:32;;;;;;;2.87;1.10;;;21.30;52.10;;;;;;5133102;27;20431;-53
2023/09/03 06:15:58;;;;;;;1.10;0.63;;;21.40;51.90;;;;;;5132898;28;20524;-51
2023/09/03 06:18:25;;;;;;;1.43;0.80;;;21.40;51.90;;;;;;5132814;27;20428;-55
2023/09/03 06:20:51;;;;;;;1.30;0.70;;;21.40;51.80;;;;;;5133000;27;20427;-53
2023/09/03 06:23:21;;;;;;;1.60;0.67;;;21.50;51.80;;;;;;5132686;28;20905;-54
2023/09/03 06:25:49;;;;;;;1.33;0.50;;;21.50;51.80;;;;;;5132844;27;20388;-54
2023/09/03 06:28:15;;;;;;;1.40;0.90;;;21.70;51.90;;;;;;5132689;27;20427;-51
2023/09/03 06:30:41;;;;;;;3.47;1.23;;;21.70;51.80;;;;;;5132815;28;20396;-52
2023/09/03 06:33:07;;;;;;;2.33;1.13;;;21.80;51.70;;;;;;5132696;27;20400;-56
2023/09/03 06:35:33;;;;;;;1.77;1.07;;;21.90;51.70;;;;;;5132186;27;20431;-56
2023/09/03 06:37:59;;;;;;;1.77;1.03;;;21.90;51.60;;;;;;5132776;28;20421;-52
2023/09/03 06:40:25;;;;;;;1.30;0.80;;;21.90;52.00;;;;;;5132557;27;20178;-51
2023/09/03 06:42:52;;;;;;;1.90;0.83;;;21.90;51.30;;;;;;5132996;27;20396;-56
2023/09/03 06:45:18;;;;;;;2.47;1.13;;;21.90;51.40;;;;;;5136401;27;20442;-51
2023/09/03 06:47:46;;;;;;;1.90;1.20;;;21.90;51.60;;;;;;5136498;27;20450;-50
2023/09/03 06:50:12;;;;;;;1.40;0.90;;;22.00;51.50;;;;;;5136424;27;20510;-53
2023/09/03 06:52:38;;;;;;;1.10;0.83;;;22.10;51.60;;;;;;5136691;27;20440;-52
2023/09/03 06:55:04;;;;;;;2.00;0.80;;;22.20;51.90;;;;;;5136299;27;20396;-50
2023/09/03 06:57:31;;;;;;;1.20;0.67;;;22.20;51.60;;;;;;5136287;27;20428;-54
2023/09/03 06:59:57;;;;;;;1.17;0.70;;;22.30;51.60;;;;;;5136362;27;20463;-54
2023/09/03 07:02:23;;;;;;;1.97;0.90;;;22.40;51.50;;;;;;5136255;27;20412;-49
2023/09/03 07:04:50;;;;;;;1.20;0.73;;;22.40;51.60;;;;;;5135835;27;20289;-54
2023/09/03 07:07:15;;;;;;;1.53;0.60;;;22.40;51.60;;;;;;5136198;27;20469;-51
2023/09/03 07:09:41;;;;;;;1.20;0.60;;;22.50;51.90;;;;;;5136204;27;20408;-48
2023/09/03 07:12:07;;;;;;;2.17;0.97;;;22.50;52.30;;;;;;5136135;27;20167;-51
2023/09/03 07:14:34;;;;;;;1.73;0.90;;;22.50;52.00;;;;;;5135866;27;20182;-54
2023/09/03 07:17:00;;;;;;;1.50;1.00;;;22.50;52.30;;;;;;5135870;27;20435;-48
2023/09/03 07:19:27;;;;;;;2.80;1.23;;;22.50;52.20;;;;;;5135909;27;20400;-55
2023/09/03 07:21:53;;;;;;;1.37;1.10;;;22.60;52.10;;;;;;5135894;27;20408;-55
2023/09/03 07:24:18;;;;;;;1.60;0.77;;;22.60;52.20;;;;;;5135590;27;20459;-50
2023/09/03 07:26:44;;;;;;;1.50;1.33;;;22.60;52.00;;;;;;5135753;27;20187;-52
2023/09/03 07:29:10;;;;;;;1.30;1.03;;;22.70;52.30;;;;;;5135781;27;20232;-54
2023/09/03 07:31:40;;;;;;;1.20;0.90;;;22.70;52.20;;;;;;5135714;27;20194;-51
2023/09/03 07:34:07;;;;;;;1.80;1.23;;;22.80;52.10;;;;;;5135866;27;20238;-56
2023/09/03 07:36:33;;;;;;;1.70;1.13;;;22.80;52.10;;;;;;5135438;27;20436;-50
2023/09/03 07:38:59;;;;;;;2.60;1.10;;;22.90;52.20;;;;;;5135652;27;20414;-49
2023/09/03 07:41:25;;;;;;;2.17;1.23;;;23.00;52.20;;;;;;5135546;27;20864;-56
2023/09/03 07:43:51;;;;;;;1.70;1.00;;;23.00;52.20;;;;;;5135419;27;20446;-53
2023/09/03 07:46:18;;;;;;;1.60;0.80;;;23.00;52.10;;;;;;5135141;27;20536;-50
2023/09/03 07:48:44;;;;;;;1.83;1.10;;;23.00;52.40;;;;;;5135368;27;20404;-53
2023/09/03 07:51:12;;;;;;;2.97;1.60;;;23.10;52.30;;;;;;5135268;27;20449;-51
2023/09/03 07:53:38;;;;;;;2.50;1.60;;;23.20;52.20;;;;;;5135604;27;20178;-52
2023/09/03 07:56:04;;;;;;;2.10;1.10;;;23.30;52.50;;;;;;5132549;27;20412;-53
2023/09/03 07:58:29;;;;;;;2.10;1.33;;;23.40;52.20;;;;;;5135184;27;20230;-54
2023/09/03 08:00:55;;;;;;;2.30;1.30;;;23.50;52.20;;;;;;5135248;27;20417;-54
2023/09/03 08:03:21;;;;;;;1.80;1.50;;;23.50;52.00;;;;;;5135291;27;20242;-52
2023/09/03 08:05:47;;;;;;;1.53;1.20;;;23.50;52.00;;;;;;5134818;27;20870;-55
2023/09/03 08:08:13;;;;;;;3.23;2.60;;;23.60;51.90;;;;;;5134904;27;20197;-52
2023/09/03 08:10:38;;;;;;;1.80;1.20;;;23.70;51.80;;;;;;5135008;27;20315;-52
2023/09/03 08:13:04;;;;;;;2.47;2.27;;;23.70;51.60;;;;;;5135075;27;20250;-56
2023/09/03 08:15:30;;;;;;;2.90;2.00;;;23.70;51.60;;;;;;5116220;27;20198;-52
2023/09/03 08:17:56;;;;;;;2.67;1.70;;;23.80;51.40;;;;;;5134810;27;20222;-52
2023/09/03 08:20:21;;;;;;;3.07;1.60;;;23.90;51.40;;;;;;5134783;27;20173;-55
2023/09/03 08:22:47;;;;;;;1.83;1.37;;;23.90;51.70;;;;;;5135055;27;20260;-52
2023/09/03 08:25:13;;;;;;;3.83;2.03;;;24.00;51.50;;;;;;5134375;27;20771;-55
2023/09/03 08:27:40;;;;;;;1.63;1.00;;;24.10;51.30;;;;;;5134645;27;20186;-52
2023/09/03 08:30:07;;;;;;;1.47;0.90;;;24.20;51.50;;;;;;5134878;27;20181;-51
2023/09/03 08:32:32;;;;;;;1.90;1.13;;;24.30;51.50;;;;;;5134563;27;20411;-53
2023/09/03 08:34:58;;;;;;;1.53;1.03;;;24.30;51.10;;;;;;5134124;27;20432;-51
2023/09/03 08:37:26;;;;;;;1.93;1.20;;;24.40;51.00;;;;;;5134385;27;20190;-52
2023/09/03 08:39:52;;;;;;;1.60;1.07;;;24.40;50.40;;;;;;5134692;27;20632;-53
2023/09/03 08:42:19;;;;;;;1.80;0.63;;;24.50;50.50;;;;;;5134417;27;20453;-54
2023/09/03 08:45:01;;;;;;;2.10;1.10;;;24.40;49.60;;;;;;5133804;27;20444;-53
2023/09/03 08:47:27;;;;;;;1.27;0.83;;;24.40;49.00;;;;;;5134369;27;20416;-53
2023/09/03 08:49:53;;;;;;;1.70;0.97;;;24.40;49.20;;;;;;5134496;27;20404;-56
2023/09/03 08:52:19;;;;;;;1.40;0.90;;;24.50;49.60;;;;;;5134207;27;20392;-53
2023/09/03 08:54:45;;;;;;;1.57;1.10;;;24.50;49.70;;;;;;5133925;27;20419;-52
2023/09/03 08:57:12;;;;;;;3.10;1.90;;;24.60;49.80;;;;;;5134007;27;20432;-56
2023/09/03 08:59:38;;;;;;;3.30;2.10;;;24.60;49.30;;;;;;5134293;27;20408;-52
2023/09/03 09:02:09;;;;;;;1.97;1.00;;;23.70;49.20;;;;;;5134138;27;20500;-51
2023/09/03 09:04:34;;;;;;;2.03;1.37;;;24.60;48.90;;;;;;5134003;27;20444;-57
2023/09/03 09:07:01;;;;;;;4.67;1.70;;;24.60;49.40;;;;;;5133506;27;20964;-57
2023/09/03 09:09:31;;;;;;;3.03;1.70;;;24.70;49.50;;;;;;5133854;27;20501;-52
2023/09/03 09:12:12;;;;;;;1.90;1.20;;;24.70;49.20;;;;;;5133758;27;20453;-53
2023/09/03 09:15:03;;;;;;;1.70;1.00;;;24.70;48.60;;;;;;5133554;27;20408;-55
2023/09/03 09:17:39;;;;;;;3.80;1.20;;;24.80;48.60;;;;;;5130400;27;20532;-54
2023/09/03 09:20:06;;;;;;;1.63;1.00;;;24.80;48.90;;;;;;5133580;27;20404;-53
2023/09/03 09:22:39;;;;;;;1.27;0.60;;;24.90;49.50;;;;;;5133644;27;20878;-58
2023/09/03 09:25:07;;;;;;;2.50;0.93;;;25.00;49.10;;;;;;5133303;27;20561;-57
2023/09/03 09:27:36;;;;;;;1.73;1.50;;;25.00;49.00;;;;;;5133363;27;20436;-52
2023/09/03 09:30:22;;;;;;;2.10;1.20;;;25.10;48.60;;;;;;5133705;27;20431;-55
2023/09/03 09:32:48;;;;;;;3.10;2.00;;;25.10;48.50;;;;;;5133383;27;20440;-54
2023/09/03 09:35:24;;;;;;;1.70;1.37;;;25.00;48.00;;;;;;5133137;27;20459;-54
2023/09/03 09:37:50;;;;;;;2.23;0.80;;;25.00;48.00;;;;;;5133389;27;20480;-52
2023/09/03 09:40:29;;;;;;;1.30;0.83;;;25.00;48.20;;;;;;5133324;27;20408;-56
2023/09/03 09:42:59;;;;;;;2.20;1.00;;;25.20;48.60;;;;;;5133551;27;20158;-52
2023/09/03 09:45:24;;;;;;;1.70;1.37;;;25.30;48.60;;;;;;5132887;27;20452;-52
2023/09/03 09:48:08;;;;;;;2.13;1.03;;;25.40;48.10;;;;;;5133684;27;20423;-56
2023/09/03 09:50:36;;;;;;;2.13;1.27;;;25.50;47.60;;;;;;5133127;27;20648;-52
2023/09/03 09:53:03;;;;;;;1.40;0.83;;;25.50;47.60;;;;;;5133168;27;20408;-51
2023/09/03 09:55:31;;;;;;;2.97;1.60;;;25.50;46.30;;;;;;5132787;27;20457;-52
2023/09/03 09:57:57;;;;;;;2.53;1.40;;;25.50;46.20;;;;;;5133269;27;20436;-52
2023/09/03 10:00:37;;;;;;;1.20;0.70;;;25.50;46.60;;;;;;5133122;27;20408;-59
2023/09/03 10:03:05;;;;;;;1.60;1.00;;;25.50;46.30;;;;;;5133036;27;20388;-53
2023/09/03 10:05:30;;;;;;;2.17;1.73;;;25.50;45.60;;;;;;5132629;27;20538;-57
2023/09/03 10:07:57;;;;;;;1.60;1.30;;;25.40;45.60;;;;;;5133081;27;20591;-51
2023/09/03 10:10:22;;;;;;;1.70;1.20;;;25.40;45.80;;;;;;5133159;27;20410;-57
2023/09/03 10:12:48;;;;;;;2.63;1.40;;;25.50;45.90;;;;;;5132953;28;20400;-58
2023/09/03 10:15:14;;;;;;;1.30;0.50;;;25.60;46.10;;;;;;5131374;27;20178;-52
2023/09/03 10:17:41;;;;;;;1.27;0.70;;;25.80;46.10;;;;;;5132881;27;20560;-57
2023/09/03 10:20:15;;;;;;;2.10;1.33;;;25.90;46.20;;;;;;5137121;27;20415;-58
2023/09/03 10:22:41;;;;;;;2.57;1.67;;;26.00;45.90;;;;;;5137160;27;20418;-52
2023/09/03 10:25:12;;;;;;;1.20;0.60;;;26.00;45.40;;;;;;5136817;27;20490;-55
2023/09/03 10:27:41;;;;;;;2.10;1.10;;;26.00;44.60;;;;;;5137169;27;20504;-52
2023/09/03 10:30:10;;;;;;;1.93;1.00;;;26.20;44.90;;;;;;5137270;27;20437;-57
2023/09/03 10:32:38;;;;;;;2.20;1.17;;;26.20;45.30;;;;;;5136916;27;20750;-58
2023/09/03 10:35:08;;;;;;;1.47;0.90;;;26.30;44.30;;;;;;5136467;27;20801;-53
2023/09/03 10:37:38;;;;;;;1.30;0.67;;;26.20;43.60;;;;;;5136961;27;20436;-57
2023/09/03 10:40:24;;;;;;;1.30;0.60;;;26.10;43.20;;;;;;5136993;27;20411;-55
2023/09/03 10:42:51;;;;;;;2.33;1.03;;;26.10;43.30;;;;;;5137073;27;20428;-52
2023/09/03 10:45:18;;;;;;;2.60;0.90;;;26.10;43.60;;;;;;5136360;27;20447;-54
2023/09/03 10:48:04;;;;;;;1.20;0.77;;;26.20;43.50;;;;;;5136709;27;20910;-55
2023/09/03 10:50:48;;;;;;;2.60;1.73;;;26.20;42.90;;;;;;5136772;27;20419;-54
2023/09/03 10:53:36;;;;;;;1.30;1.17;;;26.40;43.70;;;;;;5136768;27;20435;-51
2023/09/03 10:56:16;;;;;;;1.10;0.50;;;26.60;42.60;;;;;;5136180;27;20415;-53
2023/09/03 10:58:58;;;;;;;1.10;0.63;;;26.60;40.90;;;;;;5136476;27;20432;-57
2023/09/03 11:01:30;;;;;;;1.33;0.60;;;26.60;41.30;;;;;;5136669;27;20392;-53
2023/09/03 11:03:56;;;;;;;1.00;0.40;;;26.60;41.40;;;;;;5136418;27;20456;-56
2023/09/03 11:06:24;;;;;;;2.23;1.20;;;26.60;40.60;;;;;;5136144;27;20400;-51
2023/09/03 11:08:58;;;;;;;1.10;0.60;;;26.70;41.80;;;;;;5136462;27;20491;-54
2023/09/03 11:11:25;;;;;;;1.40;0.80;;;26.80;41.80;;;;;;5136155;27;20456;-53
2023/09/03 11:13:54;;;;;;;1.63;0.93;;;26.80;40.00;;;;;;5136034;27;20463;-51
2023/09/03 11:16:31;;;;;;;1.57;1.00;;;26.90;41.60;;;;;;5135785;27;20408;-53
2023/09/03 11:18:57;;;;;;;1.40;0.83;;;26.90;41.80;;;;;;5135990;27;20415;-52
2023/09/03 11:21:27;;;;;;;1.50;0.70;;;26.80;41.90;;;;;;5135953;27;20400;-51
2023/09/03 11:24:14;;;;;;;1.73;0.90;;;26.80;42.00;;;;;;5135938;27;20542;-57
2023/09/03 11:26:40;;;;;;;5.00;0.90;;;26.70;41.70;;;;;;5135837;27;20445;-54
2023/09/03 11:29:19;;;;;;;2.37;1.40;;;26.60;41.00;;;;;;5135472;27;20411;-55
2023/09/03 11:31:48;;;;;;;1.10;0.60;;;26.60;41.20;;;;;;5135993;27;20178;-50
2023/09/03 11:34:24;;;;;;;1.50;1.20;;;26.50;41.60;;;;;;5135449;27;20408;-54
2023/09/03 11:36:50;;;;;;;1.63;0.70;;;26.60;41.70;;;;;;5135668;27;20959;-56
2023/09/03 11:39:17;;;;;;;2.00;0.93;;;26.70;41.80;;;;;;5135528;27;20443;-53
2023/09/03 11:41:46;;;;;;;1.10;0.50;;;26.80;40.20;;;;;;5135439;27;20415;-54
2023/09/03 11:44:16;;;;;;;2.07;0.77;;;26.90;40.40;;;;;;5135454;27;20484;-51
2023/09/03 11:46:59;;;;;;;1.20;0.70;;;26.90;39.60;;;;;;5135610;27;20424;-57
2023/09/03 11:49:24;;;;;;;1.33;0.87;;;26.90;40.20;;;;;;5135738;27;20432;-56
2023/09/03 11:51:52;;;;;;;1.30;0.67;;;27.00;40.70;;;;;;5135525;27;20451;-53
2023/09/03 11:54:25;;;;;;;2.03;1.20;;;27.00;40.60;;;;;;5135016;27;20585;-56
2023/09/03 11:56:54;;;;;;;1.33;0.57;;;27.00;40.60;;;;;;5135232;27;20468;-52
2023/09/03 11:59:20;;;;;;;1.50;0.67;;;27.00;40.50;;;;;;5135561;27;20434;-58
2023/09/03 12:01:47;;;;;;;1.20;0.80;;;27.00;40.70;;;;;;5133899;27;20416;-57
2023/09/03 12:04:13;;;;;;;1.50;0.90;;;27.00;40.40;;;;;;5134965;27;20455;-53
2023/09/03 12:06:38;;;;;;;1.30;0.93;;;27.10;40.40;;;;;;5135290;27;20412;-57
2023/09/03 12:09:04;;;;;;;3.33;1.00;;;27.10;39.70;;;;;;5135435;27;20757;-53
2023/09/03 12:11:30;;;;;;;1.67;1.10;;;27.10;40.00;;;;;;5135252;27;20633;-57
2023/09/03 12:13:56;;;;;;;1.40;0.90;;;27.20;39.80;;;;;;5135131;27;20182;-58
2023/09/03 12:16:24;;;;;;;1.50;0.97;;;27.10;40.10;;;;;;5134873;27;20400;-50
2023/09/03 12:19:01;;;;;;;1.20;0.70;;;27.00;40.30;;;;;;5134960;27;20187;-53
2023/09/03 12:21:34;;;;;;;1.40;0.90;;;27.00;40.00;;;;;;5133563;27;20774;-52
2023/09/03 12:24:05;;;;;;;1.30;0.70;;;26.90;38.60;;;;;;5134748;27;20484;-57
2023/09/03 12:26:34;;;;;;;2.10;1.10;;;26.90;39.70;;;;;;5134880;27;20435;-54
2023/09/03 12:29:01;;;;;;;1.10;0.60;;;26.90;38.70;;;;;;5134643;27;20400;-52
2023/09/03 12:31:43;;;;;;;1.10;0.60;;;26.80;38.70;;;;;;5134723;27;21032;-57
2023/09/03 12:34:09;;;;;;;1.43;0.93;;;26.80;39.20;;;;;;5134362;27;20408;-49
2023/09/03 12:36:59;;;;;;;1.30;0.80;;;26.80;40.00;;;;;;5134382;27;20424;-54
2023/09/03 12:39:43;;;;;;;1.10;0.50;;;26.90;39.90;;;;;;5134650;27;20432;-51
2023/09/03 12:42:10;;;;;;;1.70;1.03;;;26.90;37.70;;;;;;5133501;27;20414;-52
2023/09/03 12:44:36;;;;;;;1.33;0.90;;;26.90;36.80;;;;;;5134013;27;20485;-56
2023/09/03 12:47:03;;;;;;;1.60;0.80;;;26.90;39.20;;;;;;5133169;27;20431;-53
2023/09/03 12:49:29;;;;;;;1.77;0.93;;;26.90;39.50;;;;;;5134418;27;20908;-52
2023/09/03 12:51:56;;;;;;;1.43;0.90;;;26.80;39.40;;;;;;5134433;27;20400;-58
2023/09/03 12:54:22;;;;;;;1.43;0.63;;;26.70;39.50;;;;;;5133928;27;20412;-57